Time;durP1;ratioP1;P1;durP2;ratioP2;P2;SDS_P1;SDS_P2;PMS_P1;PMS_P2;Temp;Humidity;BMP_temperature;BMP_pressure;BME280_temperature;BME280_humidity;BME280_pressure;Samples;Min_cycle;Max_cycle;Signal;HPM_P1;HPM_P2
2022/11/05 00:10:56;;;;;;;1.75;1.48;;;;;;;8.13;100.00;100426.72;5028485;28;20029;-78
2022/11/05 00:19:05;;;;;;;0.38;0.38;;;;;;;8.17;100.00;100403.94;5012576;28;20040;-75
2022/11/05 00:27:03;;;;;;;0.30;0.30;;;;;;;8.25;100.00;100381.69;5010743;28;20132;-76
2022/11/05 00:29:29;;;;;;;0.35;0.35;;;;;;;8.27;100.00;100379.69;5026685;28;20033;-78
2022/11/05 00:31:55;;;;;;;0.30;0.30;;;;;;;8.31;100.00;100371.13;5026972;28;20036;-75
2022/11/05 00:34:20;;;;;;;0.40;0.40;;;;;;;8.30;100.00;100364.09;5024598;28;20041;-75
2022/11/05 00:36:48;;;;;;;0.40;0.40;;;;;;;8.31;100.00;100357.75;4992706;28;20122;-75
2022/11/05 00:39:14;;;;;;;0.30;0.30;;;;;;;8.37;100.00;100359.72;4995977;28;20046;-78
2022/11/05 00:41:39;;;;;;;0.30;0.30;;;;;;;8.41;100.00;100346.03;4990779;28;20041;-77
2022/11/05 00:49:28;;;;;;;0.40;0.40;;;;;;;8.48;100.00;100345.16;5026093;28;20121;-76
2022/11/05 00:49:35;;;;;;;0.30;0.30;;;;;;;8.50;100.00;100329.75;5022057;28;20086;-77
2022/11/05 00:54:45;;;;;;;0.40;0.40;;;;;;;8.57;100.00;100317.34;5025742;28;20072;-75
2022/11/05 00:57:10;;;;;;;0.30;0.30;;;;;;;8.58;100.00;100316.31;4993986;28;20037;-78
2022/11/05 00:59:36;;;;;;;0.38;0.38;;;;;;;8.63;100.00;100315.81;4991077;28;20099;-75
2022/11/05 01:02:02;;;;;;;0.30;0.30;;;;;;;8.63;100.00;100302.41;4987984;28;20038;-78
2022/11/05 01:04:27;;;;;;;0.30;0.30;;;;;;;8.71;100.00;100299.69;5000346;28;20033;-75
2022/11/05 01:06:56;;;;;;;0.40;0.40;;;;;;;8.73;100.00;100295.00;4992499;28;20049;-76
2022/11/05 01:09:22;;;;;;;0.32;0.32;;;;;;;8.77;100.00;100282.91;5023077;28;20033;-75
2022/11/05 01:11:48;;;;;;;0.30;0.30;;;;;;;8.80;100.00;100277.19;5026184;28;20498;-76
2022/11/05 01:14:17;;;;;;;0.35;0.35;;;;;;;8.84;100.00;100266.97;5025872;28;20040;-76
2022/11/05 01:16:44;;;;;;;0.38;0.38;;;;;;;8.93;100.00;100270.41;5018189;28;20388;-75
2022/11/05 01:19:10;;;;;;;0.30;0.30;;;;;;;8.92;100.00;100260.72;5020010;28;20037;-78
2022/11/05 01:21:36;;;;;;;0.40;0.40;;;;;;;8.95;100.00;100263.03;5024506;28;20049;-75
2022/11/05 01:24:02;;;;;;;0.50;0.50;;;;;;;8.96;100.00;100249.44;5037968;28;20506;-80
2022/11/05 01:26:28;;;;;;;0.40;0.40;;;;;;;9.02;100.00;100243.38;4992276;28;20033;-75
2022/11/05 01:28:56;;;;;;;0.30;0.30;;;;;;;9.06;100.00;100234.97;5011689;28;20435;-76
2022/11/05 01:31:22;;;;;;;0.30;0.30;;;;;;;9.06;100.00;100216.19;5008542;28;20026;-77
2022/11/05 01:33:48;;;;;;;0.40;0.40;;;;;;;9.13;100.00;100207.25;5021792;28;20032;-77
2022/11/05 01:36:14;;;;;;;0.40;0.40;;;;;;;9.18;100.00;100212.91;4985295;28;20434;-79
2022/11/05 01:38:40;;;;;;;0.38;0.38;;;;;;;9.19;100.00;100206.53;5023985;28;20041;-78
2022/11/05 01:41:06;;;;;;;0.30;0.30;;;;;;;9.20;100.00;100213.56;4992073;28;20538;-75
2022/11/05 01:43:49;;;;;;;0.30;0.30;;;;;;;9.26;100.00;100203.94;4990123;28;20037;-77
2022/11/05 01:46:22;;;;;;;0.40;0.40;;;;;;;9.32;100.00;100194.38;5002214;28;20913;-75
2022/11/05 01:48:51;;;;;;;0.40;0.40;;;;;;;9.31;100.00;100177.41;5022233;28;20079;-75
2022/11/05 01:51:22;;;;;;;0.30;0.30;;;;;;;9.35;100.00;100173.34;4990237;28;20041;-78
2022/11/05 01:53:51;;;;;;;0.30;0.30;;;;;;;9.28;100.00;100147.44;5023831;28;20032;-77
2022/11/05 01:56:21;;;;;;;0.30;0.30;;;;;;;9.39;100.00;100146.97;5010143;28;20040;-77
2022/11/05 01:58:51;;;;;;;0.40;0.40;;;;;;;9.46;100.00;100155.97;5022987;28;20505;-77
2022/11/05 02:01:17;;;;;;;0.40;0.40;;;;;;;9.41;100.00;100140.41;4989248;28;20517;-75
2022/11/05 02:03:43;;;;;;;0.30;0.30;;;;;;;9.58;100.00;100149.16;5017154;28;20033;-75
2022/11/05 02:06:09;;;;;;;1.23;0.40;;;;;;;9.55;100.00;100136.09;5021126;28;20034;-79
2022/11/05 02:08:55;;;;;;;0.35;0.35;;;;;;;9.68;100.00;100130.94;5002467;28;20116;-77
2022/11/05 02:11:21;;;;;;;0.40;0.40;;;;;;;9.71;100.00;100134.22;5002875;28;20033;-80
2022/11/05 02:13:48;;;;;;;0.40;0.40;;;;;;;9.79;100.00;100120.72;5024806;28;20111;-77
2022/11/05 02:16:45;;;;;;;0.50;0.50;;;;;;;9.85;100.00;100106.56;5022455;28;20111;-79
2022/11/05 02:19:45;;;;;;;0.40;0.40;;;;;;;9.92;100.00;100110.13;5006232;28;20037;-76
2022/11/05 02:22:39;;;;;;;0.40;0.40;;;;;;;9.95;100.00;100099.06;5004807;28;20045;-76
2022/11/05 02:25:11;;;;;;;0.30;0.30;;;;;;;10.02;100.00;100101.81;4996713;28;20479;-75
2022/11/05 02:28:01;;;;;;;0.40;0.40;;;;;;;10.05;100.00;100104.94;5007626;28;20037;-79
2022/11/05 02:30:46;;;;;;;0.30;0.30;;;;;;;10.08;100.00;100088.47;5020027;28;20050;-77
2022/11/05 02:33:37;;;;;;;0.40;0.40;;;;;;;10.11;100.00;100087.25;4992239;28;20502;-80
2022/11/05 02:36:40;;;;;;;0.30;0.30;;;;;;;10.09;100.00;100087.44;5014863;28;20095;-77
2022/11/05 02:39:25;;;;;;;0.30;0.30;;;;;;;10.16;100.00;100087.53;5027210;28;20102;-77
2022/11/05 02:42:10;;;;;;;0.30;0.30;;;;;;;10.18;100.00;100081.94;5025421;28;20505;-79
2022/11/05 02:44:51;;;;;;;0.30;0.30;;;;;;;10.20;100.00;100069.16;4992833;28;20125;-77
2022/11/05 02:47:37;;;;;;;0.30;0.30;;;;;;;10.13;100.00;100052.94;5011208;28;20059;-78
2022/11/05 02:50:28;;;;;;;0.45;0.45;;;;;;;10.12;100.00;100054.81;5013660;28;20033;-76
2022/11/05 02:52:57;;;;;;;0.40;0.40;;;;;;;10.19;100.00;100049.53;5027105;28;20730;-77
2022/11/05 02:55:26;;;;;;;0.52;0.52;;;;;;;10.27;100.00;100064.69;5028474;28;20025;-77
2022/11/05 02:57:52;;;;;;;0.30;0.30;;;;;;;10.27;100.00;100054.81;5024794;28;20499;-76
2022/11/05 03:00:50;;;;;;;0.30;0.30;;;;;;;10.31;100.00;100049.88;5029497;28;20053;-78
2022/11/05 03:03:37;;;;;;;0.30;0.30;;;;;;;10.31;100.00;100048.00;5027117;28;20112;-76
2022/11/05 03:06:30;;;;;;;0.45;0.45;;;;;;;10.25;100.00;100039.88;5029540;28;20037;-76
2022/11/05 03:09:10;;;;;;;0.55;0.55;;;;;;;10.33;100.00;100039.75;5008274;28;20029;-80
2022/11/05 03:11:43;;;;;;;0.30;0.30;;;;;;;10.31;100.00;100034.56;5012137;28;20587;-77
2022/11/05 03:14:23;;;;;;;0.33;0.33;;;;;;;10.32;100.00;100030.88;5029554;28;20041;-76
2022/11/05 03:17:17;;;;;;;0.32;0.32;;;;;;;10.32;100.00;100020.13;5029592;28;20309;-76
2022/11/05 03:20:14;;;;;;;0.30;0.30;;;;;;;10.34;100.00;100012.69;5011472;28;20033;-76
2022/11/05 03:23:02;;;;;;;0.30;0.30;;;;;;;10.38;100.00;100017.69;4994629;28;20065;-76
2022/11/05 03:25:31;;;;;;;0.40;0.40;;;;;;;10.37;100.00;100011.47;5021709;28;20545;-81
2022/11/05 03:27:59;;;;;;;0.40;0.40;;;;;;;10.37;100.00;100003.41;5026626;28;20079;-76
2022/11/05 03:30:25;;;;;;;0.30;0.30;;;;;;;10.39;100.00;99996.00;5028006;28;20029;-76
2022/11/05 03:32:56;;;;;;;0.43;0.43;;;;;;;10.32;100.00;99976.31;5011301;28;20498;-78
2022/11/05 03:35:26;;;;;;;0.40;0.40;;;;;;;10.28;100.00;99950.84;5025714;28;20044;-76
2022/11/05 03:37:56;;;;;;;0.30;0.30;;;;;;;10.37;100.00;99979.22;5014634;28;20377;-76
2022/11/05 03:40:23;;;;;;;0.30;0.30;;;;;;;10.41;100.00;99969.75;5029120;28;20041;-81
2022/11/05 03:42:53;;;;;;;0.30;0.30;;;;;;;10.45;100.00;99972.88;4990797;28;20034;-76
2022/11/05 03:45:27;;;;;;;0.30;0.30;;;;;;;10.41;100.00;99961.69;5008612;28;20073;-77
2022/11/05 03:47:56;;;;;;;0.30;0.30;;;;;;;10.43;100.00;99967.72;5024603;28;20121;-79
2022/11/05 03:50:21;;;;;;;0.40;0.40;;;;;;;10.44;100.00;99964.00;5027585;28;20029;-76
2022/11/05 03:52:52;;;;;;;0.47;0.47;;;;;;;10.45;100.00;99964.81;5025198;28;20388;-78
2022/11/05 03:55:25;;;;;;;0.43;0.43;;;;;;;10.44;100.00;99965.84;5027344;28;20932;-77
2022/11/05 03:57:53;;;;;;;0.30;0.30;;;;;;;10.44;100.00;99957.78;5028772;28;20507;-76
2022/11/05 04:00:20;;;;;;;0.40;0.40;;;;;;;10.45;100.00;99946.00;5026583;28;20025;-77
2022/11/05 04:02:46;;;;;;;0.50;0.50;;;;;;;10.49;100.00;99950.81;5027809;28;20032;-76
2022/11/05 04:05:12;;;;;;;0.40;0.40;;;;;;;10.47;100.00;99950.16;5009312;28;20033;-78
2022/11/05 04:13:24;;;;;;;0.30;0.30;;;;;;;10.51;100.00;99927.25;5025416;28;20533;-78
2022/11/05 04:18:39;;;;;;;0.32;0.32;;;;;;;10.56;100.00;99922.13;5026255;28;20067;-76
2022/11/05 04:24:08;;;;;;;0.30;0.30;;;;;;;10.53;100.00;99909.09;5055226;28;20498;-76
2022/11/05 04:26:42;;;;;;;0.35;0.35;;;;;;;10.56;100.00;99910.53;4994274;28;20443;-76
2022/11/05 04:31:53;;;;;;;0.40;0.40;;;;;;;10.57;100.00;99909.50;5008301;28;20073;-78
2022/11/05 04:34:20;;;;;;;0.40;0.40;;;;;;;10.60;100.00;99909.13;5026721;28;20495;-77
2022/11/05 04:36:48;;;;;;;0.30;0.30;;;;;;;10.66;100.00;99902.13;5025246;28;20029;-80
2022/11/05 04:39:16;;;;;;;0.30;0.30;;;;;;;10.65;100.00;99889.72;5027638;28;20121;-78
2022/11/05 04:41:41;;;;;;;0.35;0.35;;;;;;;10.66;100.00;99889.50;4988522;28;20037;-76
2022/11/05 04:44:07;;;;;;;0.30;0.30;;;;;;;10.63;100.00;99900.66;4989698;28;20108;-76
2022/11/05 04:46:33;;;;;;;0.30;0.30;;;;;;;10.65;100.00;99890.53;4993696;28;20039;-76
2022/11/05 04:48:58;;;;;;;0.30;0.30;;;;;;;10.67;100.00;99887.66;4998359;28;20384;-77
2022/11/05 04:51:26;;;;;;;0.30;0.30;;;;;;;10.66;100.00;99884.13;5026208;28;20041;-77
2022/11/05 04:53:52;;;;;;;0.30;0.30;;;;;;;10.73;100.00;99892.22;5027359;28;20033;-79
2022/11/05 04:56:20;;;;;;;0.30;0.30;;;;;;;10.74;100.00;99891.19;5042359;28;20215;-77
2022/11/05 04:58:46;;;;;;;0.40;0.40;;;;;;;10.75;100.00;99884.81;5008573;28;20087;-77
2022/11/05 05:01:22;;;;;;;0.30;0.30;;;;;;;10.77;100.00;99882.75;5022170;28;20041;-77
2022/11/05 05:03:49;;;;;;;0.30;0.30;;;;;;;10.77;100.00;99880.91;5005599;28;20037;-79
2022/11/05 05:06:15;;;;;;;0.30;0.30;;;;;;;10.77;100.00;99875.50;5023251;28;20057;-78
2022/11/05 05:08:41;;;;;;;0.30;0.30;;;;;;;10.76;100.00;99870.31;5027532;28;20069;-77
2022/11/05 05:11:10;;;;;;;0.30;0.30;;;;;;;10.79;100.00;99883.38;5027977;28;20057;-76
2022/11/05 05:13:36;;;;;;;0.30;0.30;;;;;;;10.78;100.00;99882.53;5028345;28;20033;-80
2022/11/05 05:16:20;;;;;;;0.40;0.40;;;;;;;10.78;100.00;99879.84;4993787;28;20373;-77
2022/11/05 05:18:46;;;;;;;0.30;0.30;;;;;;;10.82;100.00;99885.66;5025406;28;20116;-77
2022/11/05 05:23:56;;;;;;;0.30;0.30;;;;;;;10.87;100.00;99871.63;5023930;28;20091;-80
2022/11/05 05:26:22;;;;;;;0.32;0.32;;;;;;;10.88;100.00;99870.59;5026419;28;20034;-76
2022/11/05 05:28:47;;;;;;;0.30;0.30;;;;;;;10.87;100.00;99871.63;4998579;28;20132;-78
2022/11/05 05:31:13;;;;;;;0.30;0.30;;;;;;;10.89;100.00;99869.56;5025293;28;20041;-77
2022/11/05 05:33:39;;;;;;;0.30;0.30;;;;;;;10.89;100.00;99875.78;5011405;28;20041;-76
2022/11/05 05:36:05;;;;;;;0.30;0.30;;;;;;;10.93;100.00;99873.53;5006035;28;20438;-76
2022/11/05 05:38:31;;;;;;;0.30;0.30;;;;;;;10.88;100.00;99874.13;4996566;28;20099;-77
2022/11/05 05:40:58;;;;;;;0.30;0.30;;;;;;;10.97;100.00;99886.34;4988302;28;20049;-78
2022/11/05 05:43:25;;;;;;;0.30;0.30;;;;;;;10.94;100.00;99875.19;5025889;28;20079;-76
2022/11/05 05:45:50;;;;;;;0.32;0.32;;;;;;;10.95;100.00;99874.13;5020994;28;20041;-76
2022/11/05 05:48:16;;;;;;;0.40;0.40;;;;;;;10.98;100.00;99881.81;5022479;28;20398;-76
2022/11/05 05:50:42;;;;;;;0.30;0.30;;;;;;;11.01;100.00;99862.59;5024181;28;20033;-80
2022/11/05 05:53:07;;;;;;;0.30;0.30;;;;;;;10.96;100.00;99857.81;5023852;28;20045;-78
2022/11/05 05:55:33;;;;;;;0.30;0.30;;;;;;;11.03;100.00;99878.53;5026503;28;20513;-76
2022/11/05 05:57:59;;;;;;;0.30;0.30;;;;;;;10.97;100.00;99878.28;5020125;28;20493;-78
2022/11/05 06:00:24;;;;;;;0.30;0.30;;;;;;;11.03;100.00;99870.44;5024326;28;20021;-77
2022/11/05 06:02:50;;;;;;;0.30;0.30;;;;;;;11.03;100.00;99873.97;5022200;28;20110;-78
2022/11/05 06:05:15;;;;;;;0.30;0.30;;;;;;;11.02;100.00;99869.63;5024409;28;20396;-76
2022/11/05 06:07:41;;;;;;;0.35;0.35;;;;;;;11.06;100.00;99900.50;5022310;28;20088;-76
2022/11/05 06:10:07;;;;;;;0.30;0.30;;;;;;;11.02;100.00;99882.25;5014070;28;20034;-75
2022/11/05 06:12:33;;;;;;;0.30;0.30;;;;;;;11.06;100.00;99883.50;5028276;28;20112;-75
2022/11/05 06:14:59;;;;;;;0.40;0.40;;;;;;;11.07;100.00;99898.63;4998855;28;20539;-78
2022/11/05 06:17:25;;;;;;;0.30;0.30;;;;;;;11.09;100.00;99891.19;4997470;28;20519;-76
2022/11/05 06:19:50;;;;;;;0.30;0.30;;;;;;;11.14;100.00;99894.94;5013155;28;20129;-79
2022/11/05 06:22:16;;;;;;;0.30;0.30;;;;;;;11.17;100.00;99902.59;4996344;28;20110;-75
2022/11/05 06:24:42;;;;;;;0.40;0.40;;;;;;;11.19;100.00;99911.31;5007321;28;20057;-78
2022/11/05 06:27:07;;;;;;;0.35;0.35;;;;;;;11.15;100.00;99912.72;5025941;28;20463;-79
2022/11/05 06:29:33;;;;;;;0.30;0.30;;;;;;;11.21;100.00;99925.38;5008459;28;20403;-77
2022/11/05 06:31:59;;;;;;;0.30;0.30;;;;;;;11.20;100.00;99931.78;5009992;28;20128;-79
2022/11/05 06:34:27;;;;;;;0.30;0.30;;;;;;;11.18;100.00;99930.34;5028490;28;20074;-75
2022/11/05 06:36:52;;;;;;;0.30;0.30;;;;;;;11.16;100.00;99933.22;5007604;28;20380;-78
2022/11/05 06:39:18;;;;;;;0.32;0.32;;;;;;;11.12;100.00;99931.97;5026241;28;20025;-77
2022/11/05 06:41:44;;;;;;;0.30;0.30;;;;;;;11.08;100.00;99937.94;5016914;28;20041;-77
2022/11/05 06:44:09;;;;;;;0.30;0.30;;;;;;;10.99;100.00;99932.72;5024800;28;20034;-78
2022/11/05 06:46:35;;;;;;;0.30;0.30;;;;;;;10.89;100.00;99928.72;5011189;28;20128;-77
2022/11/05 06:49:01;;;;;;;0.40;0.40;;;;;;;10.82;100.00;99938.63;5029722;28;20514;-76
2022/11/05 06:51:27;;;;;;;0.38;0.38;;;;;;;10.78;100.00;99932.81;5028326;28;20068;-76
2022/11/05 06:53:53;;;;;;;0.30;0.30;;;;;;;10.74;100.00;99936.91;5031038;28;20049;-76
2022/11/05 06:56:19;;;;;;;0.30;0.30;;;;;;;10.73;100.00;99946.84;4999947;28;20076;-79
2022/11/05 06:58:44;;;;;;;0.38;0.38;;;;;;;10.71;100.00;99931.94;5030817;28;20439;-76
2022/11/05 07:01:10;;;;;;;0.30;0.30;;;;;;;10.72;100.00;99942.50;5005995;28;20515;-78
2022/11/05 07:03:36;;;;;;;0.30;0.30;;;;;;;10.71;100.00;99942.69;5034501;28;20116;-79
2022/11/05 07:06:03;;;;;;;0.30;0.30;;;;;;;10.67;100.00;99941.44;4991285;28;20044;-79
2022/11/05 07:08:31;;;;;;;0.30;0.30;;;;;;;10.63;100.00;99940.97;5031318;28;20033;-76
2022/11/05 07:10:57;;;;;;;0.30;0.30;;;;;;;10.66;100.00;99953.19;5013935;28;20037;-77
2022/11/05 07:13:23;;;;;;;0.30;0.30;;;;;;;10.66;100.00;99969.31;5051622;28;20061;-77
2022/11/05 07:15:48;;;;;;;0.30;0.30;;;;;;;10.65;100.00;99971.19;5014542;28;20041;-79
2022/11/05 07:18:14;;;;;;;0.40;0.40;;;;;;;10.65;100.00;99975.75;5033728;28;20026;-78
2022/11/05 07:20:40;;;;;;;0.30;0.30;;;;;;;10.53;100.00;99968.22;5028289;28;20479;-76
2022/11/05 07:23:08;;;;;;;0.40;0.40;;;;;;;10.51;100.00;99970.25;5028639;28;20486;-76
2022/11/05 07:25:34;;;;;;;0.40;0.40;;;;;;;10.47;100.00;99974.34;4993777;28;20041;-77
2022/11/05 07:28:01;;;;;;;0.30;0.30;;;;;;;10.42;100.00;99979.47;5029183;28;20033;-78
2022/11/05 07:30:27;;;;;;;0.40;0.40;;;;;;;10.32;100.00;99974.44;4991577;28;20073;-78
2022/11/05 07:32:52;;;;;;;0.40;0.40;;;;;;;10.34;100.00;99993.06;5022975;28;20095;-76
2022/11/05 07:35:18;;;;;;;0.30;0.30;;;;;;;10.29;100.00;99995.47;4992381;28;20418;-76
2022/11/05 07:37:45;;;;;;;0.30;0.30;;;;;;;10.28;100.00;99996.50;5006915;28;20037;-77
2022/11/05 07:40:12;;;;;;;0.30;0.30;;;;;;;10.26;100.00;99990.47;5023879;28;20029;-79
2022/11/05 07:42:42;;;;;;;0.40;0.40;;;;;;;10.24;100.00;99988.00;5013129;28;20041;-79
2022/11/05 07:45:09;;;;;;;0.40;0.40;;;;;;;10.22;100.00;99987.34;4991142;28;20037;-77
2022/11/05 07:47:53;;;;;;;0.40;0.40;;;;;;;10.20;100.00;99978.63;5023345;28;20037;-77
2022/11/05 07:50:21;;;;;;;0.30;0.30;;;;;;;10.18;100.00;99987.91;5023030;28;20033;-76
2022/11/05 07:52:47;;;;;;;0.40;0.40;;;;;;;10.11;100.00;99988.69;5023642;28;20464;-77
2022/11/05 07:55:13;;;;;;;0.40;0.40;;;;;;;9.93;100.00;99988.28;5024293;28;20041;-77
2022/11/05 07:57:43;;;;;;;0.40;0.40;;;;;;;9.80;100.00;100001.56;5015858;28;20079;-78
2022/11/05 08:00:27;;;;;;;0.30;0.30;;;;;;;9.62;100.00;100007.34;5019305;28;20057;-76
2022/11/05 08:03:05;;;;;;;0.30;0.30;;;;;;;9.47;100.00;100018.09;5025929;28;20029;-75
2022/11/05 08:05:33;;;;;;;0.40;0.40;;;;;;;9.33;100.00;100010.91;5005454;28;20078;-77
2022/11/05 08:08:02;;;;;;;0.40;0.40;;;;;;;9.19;100.00;100017.94;5006242;28;20049;-78
2022/11/05 08:10:28;;;;;;;0.40;0.40;;;;;;;9.05;100.00;100027.66;5018020;28;20040;-77
2022/11/05 08:12:54;;;;;;;0.40;0.40;;;;;;;9.02;100.00;100030.66;5026036;28;20029;-77
2022/11/05 08:15:21;;;;;;;0.30;0.30;;;;;;;9.00;100.00;100030.03;5003999;28;20475;-76
2022/11/05 08:17:47;;;;;;;0.40;0.40;;;;;;;9.01;100.00;100035.22;5006523;28;20037;-78
2022/11/05 08:20:14;;;;;;;0.40;0.40;;;;;;;9.03;100.00;100035.03;4987091;28;20492;-79
2022/11/05 08:22:43;;;;;;;0.30;0.30;;;;;;;8.99;100.00;100026.50;5025691;28;20025;-77
2022/11/05 08:25:10;;;;;;;0.40;0.40;;;;;;;8.93;100.00;100029.94;5001929;28;20055;-76
2022/11/05 08:27:41;;;;;;;0.40;0.40;;;;;;;8.87;100.00;100036.03;5020197;28;20040;-76
2022/11/05 08:30:08;;;;;;;0.40;0.40;;;;;;;8.83;100.00;100028.53;5025324;28;20034;-76
2022/11/05 08:32:34;;;;;;;0.40;0.40;;;;;;;8.75;100.00;100029.44;5023365;28;20583;-77
2022/11/05 08:34:59;;;;;;;0.40;0.40;;;;;;;8.56;100.00;100017.38;5025284;28;20040;-79
2022/11/05 08:37:25;;;;;;;0.40;0.40;;;;;;;8.49;100.00;100032.50;5004449;28;20037;-76
2022/11/05 08:39:51;;;;;;;0.32;0.32;;;;;;;8.24;100.00;100023.81;5016375;28;20032;-82
2022/11/05 08:42:16;;;;;;;0.35;0.35;;;;;;;8.19;100.00;100020.84;5023666;28;20391;-76
2022/11/05 08:44:42;;;;;;;0.40;0.40;;;;;;;8.17;100.00;100037.06;5008463;28;20080;-77
2022/11/05 08:47:07;;;;;;;0.40;0.40;;;;;;;8.00;100.00;100017.59;4993928;28;20033;-77
2022/11/05 08:49:33;;;;;;;0.40;0.40;;;;;;;8.06;100.00;100032.13;5005607;28;20336;-76
2022/11/05 08:52:00;;;;;;;0.40;0.40;;;;;;;8.29;100.00;100035.66;4988205;28;20475;-76
2022/11/05 08:54:25;;;;;;;0.47;0.47;;;;;;;8.35;100.00;100032.25;5016309;28;20029;-77
2022/11/05 08:56:51;;;;;;;0.40;0.40;;;;;;;8.79;100.00;100023.53;5021810;28;20044;-77
2022/11/05 08:59:17;;;;;;;0.50;0.50;;;;;;;9.40;100.00;100034.13;5025621;28;20033;-76
2022/11/05 09:01:42;;;;;;;0.50;0.50;;;;;;;9.97;100.00;100039.75;5023333;28;20495;-78
2022/11/05 09:04:08;;;;;;;0.50;0.50;;;;;;;10.32;100.00;100025.50;5023885;28;20064;-75
2022/11/05 09:06:33;;;;;;;0.50;0.50;;;;;;;10.71;100.00;100040.31;5014588;28;20048;-75
2022/11/05 09:08:59;;;;;;;0.50;0.50;;;;;;;10.90;100.00;100006.53;5055881;28;20490;-77
2022/11/05 09:11:25;;;;;;;0.50;0.50;;;;;;;11.79;100.00;100031.84;5027382;28;20037;-78
2022/11/05 09:13:51;;;;;;;0.50;0.50;;;;;;;12.71;100.00;100044.72;4991431;28;20040;-77
2022/11/05 09:16:21;;;;;;;0.70;0.70;;;;;;;13.44;100.00;100046.50;5008949;28;20489;-76
2022/11/05 09:18:48;;;;;;;0.60;0.60;;;;;;;14.31;100.00;100052.38;5022396;28;20695;-78
2022/11/05 09:21:15;;;;;;;0.50;0.50;;;;;;;14.83;97.54;100044.13;5027689;28;20399;-76
2022/11/05 09:23:42;;;;;;;0.60;0.60;;;;;;;15.23;95.47;100058.13;5029765;28;20430;-78
2022/11/05 09:26:08;;;;;;;0.50;0.50;;;;;;;15.66;93.10;100059.94;5005578;28;20090;-76
2022/11/05 09:28:34;;;;;;;0.50;0.50;;;;;;;15.97;91.49;100063.56;5022694;28;20033;-76
2022/11/05 09:31:04;;;;;;;0.50;0.50;;;;;;;16.26;89.91;100059.22;4994346;28;20107;-76
2022/11/05 09:33:31;;;;;;;0.50;0.50;;;;;;;16.48;88.80;100067.66;5027761;28;20127;-76
2022/11/05 09:35:58;;;;;;;0.60;0.60;;;;;;;16.69;88.65;100074.44;5021538;28;20037;-76
2022/11/05 09:38:24;;;;;;;0.70;0.70;;;;;;;17.01;87.18;100075.00;5010089;28;20063;-78
2022/11/05 09:41:18;;;;;;;0.55;0.55;;;;;;;17.22;86.13;100067.34;4987070;28;20045;-80
2022/11/05 09:43:53;;;;;;;0.55;0.55;;;;;;;17.34;84.62;100062.72;5034279;28;20049;-81
2022/11/05 09:46:27;;;;;;;0.60;0.60;;;;;;;17.39;84.04;100068.28;5011482;28;20033;-77
2022/11/05 09:49:02;;;;;;;0.60;0.60;;;;;;;17.58;83.44;100077.94;5022656;28;20431;-77
2022/11/05 09:51:28;;;;;;;0.50;0.50;;;;;;;17.63;83.27;100074.50;5022723;28;20047;-76
2022/11/05 09:53:53;;;;;;;0.60;0.60;;;;;;;17.81;83.20;100065.41;5022436;28;20116;-76
2022/11/05 09:56:28;;;;;;;0.80;0.80;;;;;;;18.04;82.23;100058.22;5008331;28;20144;-76
2022/11/05 09:59:24;;;;;;;2.08;1.48;;;;;;;18.28;81.03;100078.00;5011961;28;20497;-76
2022/11/05 10:01:55;;;;;;;0.80;0.80;;;;;;;18.45;81.30;100074.25;5021091;28;20051;-85
2022/11/05 10:04:23;;;;;;;26.05;1.77;;;;;;;18.73;80.54;100077.19;5012105;28;20061;-83
2022/11/05 10:06:52;;;;;;;0.60;0.60;;;;;;;18.96;79.91;100082.50;5012074;28;20033;-84
2022/11/05 10:09:30;;;;;;;2.50;1.20;;;;;;;18.81;80.29;100085.78;5011621;28;20093;-84
2022/11/05 10:12:01;;;;;;;2.88;1.60;;;;;;;19.08;78.99;100091.44;5010628;28;20463;-82
2022/11/05 10:14:35;;;;;;;5.38;3.13;;;;;;;19.38;79.15;100089.44;5011184;28;20395;-86
2022/11/05 10:17:12;;;;;;;4.95;1.13;;;;;;;19.67;78.14;100085.50;5029265;28;20032;-86
2022/11/05 10:19:47;;;;;;;10.93;1.85;;;;;;;20.02;77.49;100088.94;5012698;28;20044;-88
2022/11/05 10:22:17;;;;;;;6.95;1.58;;;;;;;20.25;76.73;100087.84;4992063;28;20128;-84
2022/11/05 10:24:46;;;;;;;9.23;2.08;;;;;;;20.32;75.45;100086.56;4996531;28;20037;-84
2022/11/05 10:27:26;;;;;;;9.07;1.88;;;;;;;20.56;74.12;100091.72;5011198;28;20044;-84
2022/11/05 10:29:51;;;;;;;5.82;1.98;;;;;;;20.47;74.17;100096.81;4995916;28;20491;-86
2022/11/05 10:32:38;;;;;;;7.97;2.10;;;;;;;20.40;73.25;100093.44;4995931;28;20052;-89
2022/11/05 10:35:07;;;;;;;6.22;2.20;;;;;;;20.41;72.58;100090.47;5021864;28;20061;-84
2022/11/05 10:37:33;;;;;;;11.25;2.30;;;;;;;20.52;74.38;100094.13;4996281;28;20040;-85
2022/11/05 10:39:59;;;;;;;7.30;2.25;;;;;;;20.50;72.98;100087.28;4999796;28;20179;-85
2022/11/05 10:42:59;;;;;;;12.27;2.85;;;;;;;20.63;73.54;100093.16;4994736;28;20037;-86
2022/11/05 10:45:34;;;;;;;10.18;2.05;;;;;;;20.31;73.28;100106.75;5039232;28;20034;-85
2022/11/05 10:48:08;;;;;;;10.07;2.70;;;;;;;19.82;77.03;100100.41;5029065;28;20565;-84
2022/11/05 10:50:33;;;;;;;17.30;2.88;;;;;;;19.21;76.38;100073.94;5028230;28;20095;-84
2022/11/05 10:53:08;;;;;;;5.97;1.70;;;;;;;18.37;79.78;100107.31;5029072;28;20231;-84
2022/11/05 10:55:36;;;;;;;5.55;1.88;;;;;;;17.57;85.58;100100.75;5012884;28;20454;-84
2022/11/05 10:58:20;;;;;;;15.40;4.10;;;;;;;17.27;86.77;100083.75;4999784;28;20052;-83
2022/11/05 11:00:49;;;;;;;4.82;1.75;;;;;;;17.53;87.43;100107.72;5012715;28;20026;-84
2022/11/05 11:03:33;;;;;;;12.23;3.25;;;;;;;18.29;87.13;100106.88;5032669;28;20044;-83
2022/11/05 11:06:20;;;;;;;9.02;2.95;;;;;;;19.21;82.04;100111.22;5032456;28;20021;-85
2022/11/05 11:08:46;;;;;;;10.02;2.33;;;;;;;18.82;81.70;100106.53;5019392;28;20052;-85
2022/11/05 11:11:28;;;;;;;13.77;3.25;;;;;;;17.64;87.17;100107.97;5011929;28;20041;-84
2022/11/05 11:14:03;;;;;;;13.38;2.50;;;;;;;17.95;85.29;100104.03;5033240;28;20025;-84
2022/11/05 11:16:37;;;;;;;8.18;2.25;;;;;;;17.90;85.67;100107.47;5064654;28;20107;-84
2022/11/05 11:19:04;;;;;;;13.25;3.08;;;;;;;16.94;90.97;100104.16;4999333;28;20132;-84
2022/11/05 11:21:31;;;;;;;8.65;2.35;;;;;;;16.72;91.29;100106.53;5000059;28;20057;-85
2022/11/05 11:23:57;;;;;;;10.35;2.78;;;;;;;16.48;94.70;100092.09;5013479;28;20077;-85
2022/11/05 11:26:27;;;;;;;5.60;1.67;;;;;;;16.91;91.95;100110.88;5013541;28;20060;-85
2022/11/05 11:29:01;;;;;;;9.15;2.33;;;;;;;17.43;89.34;100121.06;4999441;28;20045;-85
2022/11/05 11:31:29;;;;;;;10.32;1.90;;;;;;;17.32;91.21;100122.72;4999536;28;20430;-85
2022/11/05 11:34:27;;;;;;;7.95;2.20;;;;;;;17.39;89.48;100121.81;5032085;28;20108;-88
2022/11/05 11:36:57;;;;;;;9.77;2.33;;;;;;;16.58;93.49;100105.94;5025424;28;20480;-85
2022/11/05 11:39:29;;;;;;;7.55;2.00;;;;;;;16.41;94.76;100124.75;4992505;28;20041;-83
2022/11/05 11:41:58;;;;;;;10.07;2.63;;;;;;;16.13;97.62;100119.06;5024378;28;20045;-80
2022/11/05 11:44:33;;;;;;;10.10;2.55;;;;;;;17.06;94.21;100085.97;5012422;28;20029;-80
2022/11/05 11:47:11;;;;;;;9.68;2.88;;;;;;;16.57;93.93;100087.19;5022628;28;20029;-81
2022/11/05 11:49:40;;;;;;;10.25;2.10;;;;;;;16.18;97.60;100114.63;5010798;28;20041;-82
2022/11/05 11:52:35;;;;;;;11.65;2.45;;;;;;;15.64;100.00;100120.84;5029909;28;20033;-84
2022/11/05 11:55:17;;;;;;;9.55;2.60;;;;;;;15.55;100.00;100110.28;4998895;28;20096;-81
2022/11/05 11:57:46;;;;;;;9.85;2.03;;;;;;;15.23;100.00;100106.88;5011277;28;20120;-82
2022/11/05 12:00:13;;;;;;;13.02;2.65;;;;;;;15.12;100.00;100102.19;5028968;28;20092;-81
2022/11/05 12:02:47;;;;;;;12.60;2.63;;;;;;;15.59;100.00;100106.09;5012065;28;20025;-81
2022/11/05 12:05:24;;;;;;;8.90;1.90;;;;;;;16.44;100.00;100112.63;5010545;28;20391;-82
2022/11/05 12:07:58;;;;;;;15.32;2.47;;;;;;;16.98;99.16;100109.94;5018235;28;20390;-81
2022/11/05 12:11:07;;;;;;;10.02;2.47;;;;;;;17.11;95.53;100110.53;5030489;28;20033;-82
2022/11/05 12:14:03;;;;;;;9.30;2.17;;;;;;;18.60;89.39;100113.72;5022698;28;20040;-83
2022/11/05 12:16:53;;;;;;;5.40;2.15;;;;;;;19.09;88.71;100109.44;5047159;28;20036;-81
2022/11/05 12:19:37;;;;;;;6.32;2.80;;;;;;;19.70;83.08;100112.28;5010346;28;20018;-82
2022/11/05 12:22:27;;;;;;;7.63;2.13;;;;;;;21.37;77.08;100109.91;5028991;28;20055;-82
2022/11/05 12:25:17;;;;;;;10.32;2.35;;;;;;;21.70;74.69;100103.31;5030971;28;20021;-81